sensor_id;sensor_type;location;lat;lon;timestamp;temperature;humidity
30047;DHT22;16878;52.542;13.426;2022-11-20T00:00:15;1.60;99.90
30047;DHT22;16878;52.542;13.426;2022-11-20T00:02:41;1.70;99.90
30047;DHT22;16878;52.542;13.426;2022-11-20T00:05:06;1.60;99.90
30047;DHT22;16878;52.542;13.426;2022-11-20T00:07:32;1.70;99.90
30047;DHT22;16878;52.542;13.426;2022-11-20T00:09:58;1.70;99.90
30047;DHT22;16878;52.542;13.426;2022-11-20T00:12:23;1.60;99.90
30047;DHT22;16878;52.542;13.426;2022-11-20T00:14:49;1.60;99.90
30047;DHT22;16878;52.542;13.426;2022-11-20T00:17:14;1.60;99.90
30047;DHT22;16878;52.542;13.426;2022-11-20T00:19:40;1.60;99.90
30047;DHT22;16878;52.542;13.426;2022-11-20T00:22:08;1.60;99.90
30047;DHT22;16878;52.542;13.426;2022-11-20T00:24:34;1.60;99.90
30047;DHT22;16878;52.542;13.426;2022-11-20T00:26:59;1.60;99.90
30047;DHT22;16878;52.542;13.426;2022-11-20T00:29:25;1.60;99.90
30047;DHT22;16878;52.542;13.426;2022-11-20T00:31:51;1.60;99.90
30047;DHT22;16878;52.542;13.426;2022-11-20T00:34:16;1.60;99.90
30047;DHT22;16878;52.542;13.426;2022-11-20T00:36:42;1.60;99.90
30047;DHT22;16878;52.542;13.426;2022-11-20T00:39:08;1.60;99.90
30047;DHT22;16878;52.542;13.426;2022-11-20T00:41:33;1.60;99.90
30047;DHT22;16878;52.542;13.426;2022-11-20T00:43:59;1.60;99.90
30047;DHT22;16878;52.542;13.426;2022-11-20T00:46:27;1.60;99.90
30047;DHT22;16878;52.542;13.426;2022-11-20T00:48:53;1.60;99.90
30047;DHT22;16878;52.542;13.426;2022-11-20T00:51:19;1.60;99.90
30047;DHT22;16878;52.542;13.426;2022-11-20T00:53:45;1.60;99.90
30047;DHT22;16878;52.542;13.426;2022-11-20T00:56:15;1.60;99.90
30047;DHT22;16878;52.542;13.426;2022-11-20T00:58:42;1.60;99.90
30047;DHT22;16878;52.542;13.426;2022-11-20T01:01:09;1.60;99.90
30047;DHT22;16878;52.542;13.426;2022-11-20T01:03:36;1.60;99.90
30047;DHT22;16878;52.542;13.426;2022-11-20T01:06:03;1.60;99.90
30047;DHT22;16878;52.542;13.426;2022-11-20T01:08:29;1.60;99.90
30047;DHT22;16878;52.542;13.426;2022-11-20T01:10:58;1.60;99.90
30047;DHT22;16878;52.542;13.426;2022-11-20T01:13:24;1.60;99.90
30047;DHT22;16878;52.542;13.426;2022-11-20T01:16:06;1.60;99.90
30047;DHT22;16878;52.542;13.426;2022-11-20T01:18:32;1.60;99.90
30047;DHT22;16878;52.542;13.426;2022-11-20T01:21:03;1.60;99.90
30047;DHT22;16878;52.542;13.426;2022-11-20T01:23:32;1.60;99.90
30047;DHT22;16878;52.542;13.426;2022-11-20T01:25:59;1.60;99.90
30047;DHT22;16878;52.542;13.426;2022-11-20T01:28:24;1.60;99.90
30047;DHT22;16878;52.542;13.426;2022-11-20T01:30:50;1.60;99.90
30047;DHT22;16878;52.542;13.426;2022-11-20T01:33:19;1.60;99.90
30047;DHT22;16878;52.542;13.426;2022-11-20T01:35:44;1.60;99.90
30047;DHT22;16878;52.542;13.426;2022-11-20T01:38:10;1.70;99.90
30047;DHT22;16878;52.542;13.426;2022-11-20T01:40:35;1.70;99.90
30047;DHT22;16878;52.542;13.426;2022-11-20T01:43:09;1.60;99.90
30047;DHT22;16878;52.542;13.426;2022-11-20T01:48:38;1.60;99.90
30047;DHT22;16878;52.542;13.426;2022-11-20T01:51:17;1.60;99.90
30047;DHT22;16878;52.542;13.426;2022-11-20T01:53:43;1.70;99.90
30047;DHT22;16878;52.542;13.426;2022-11-20T01:56:09;1.60;99.90
30047;DHT22;16878;52.542;13.426;2022-11-20T01:58:37;1.60;99.90
30047;DHT22;16878;52.542;13.426;2022-11-20T02:01:04;1.60;99.90
30047;DHT22;16878;52.542;13.426;2022-11-20T02:03:30;1.60;99.90
30047;DHT22;16878;52.542;13.426;2022-11-20T02:06:04;1.60;99.90
30047;DHT22;16878;52.542;13.426;2022-11-20T02:08:31;1.60;99.90
30047;DHT22;16878;52.542;13.426;2022-11-20T02:10:57;1.60;99.90
30047;DHT22;16878;52.542;13.426;2022-11-20T02:13:22;1.60;99.90
30047;DHT22;16878;52.542;13.426;2022-11-20T02:16:26;1.60;99.90
30047;DHT22;16878;52.542;13.426;2022-11-20T02:18:53;1.60;99.90
30047;DHT22;16878;52.542;13.426;2022-11-20T02:26:26;1.60;99.90
30047;DHT22;16878;52.542;13.426;2022-11-20T02:28:53;1.60;99.90
30047;DHT22;16878;52.542;13.426;2022-11-20T02:31:19;1.60;99.90
30047;DHT22;16878;52.542;13.426;2022-11-20T02:33:44;1.60;99.90
30047;DHT22;16878;52.542;13.426;2022-11-20T02:36:11;1.60;99.90
30047;DHT22;16878;52.542;13.426;2022-11-20T02:38:39;1.60;99.90
30047;DHT22;16878;52.542;13.426;2022-11-20T02:41:05;1.60;99.90
30047;DHT22;16878;52.542;13.426;2022-11-20T02:43:30;1.60;99.90
30047;DHT22;16878;52.542;13.426;2022-11-20T02:45:56;1.60;99.90
30047;DHT22;16878;52.542;13.426;2022-11-20T02:48:21;1.60;99.90
30047;DHT22;16878;52.542;13.426;2022-11-20T02:50:47;1.60;99.90
30047;DHT22;16878;52.542;13.426;2022-11-20T02:53:13;1.60;99.90
30047;DHT22;16878;52.542;13.426;2022-11-20T02:55:38;1.60;99.90
30047;DHT22;16878;52.542;13.426;2022-11-20T02:58:04;1.70;99.90
30047;DHT22;16878;52.542;13.426;2022-11-20T03:00:29;1.60;99.90
30047;DHT22;16878;52.542;13.426;2022-11-20T03:02:55;1.70;99.90
30047;DHT22;16878;52.542;13.426;2022-11-20T03:05:21;1.60;99.90
30047;DHT22;16878;52.542;13.426;2022-11-20T03:07:46;1.60;99.90
30047;DHT22;16878;52.542;13.426;2022-11-20T03:10:12;1.70;99.90
30047;DHT22;16878;52.542;13.426;2022-11-20T03:12:37;1.60;99.90
30047;DHT22;16878;52.542;13.426;2022-11-20T03:15:03;1.60;99.90
30047;DHT22;16878;52.542;13.426;2022-11-20T03:17:29;1.60;99.90
30047;DHT22;16878;52.542;13.426;2022-11-20T03:19:56;1.60;99.90
30047;DHT22;16878;52.542;13.426;2022-11-20T03:22:21;1.60;99.90
30047;DHT22;16878;52.542;13.426;2022-11-20T03:24:47;1.60;99.90
30047;DHT22;16878;52.542;13.426;2022-11-20T03:27:12;1.60;99.90
30047;DHT22;16878;52.542;13.426;2022-11-20T03:29:38;1.60;99.90
30047;DHT22;16878;52.542;13.426;2022-11-20T03:32:03;1.60;99.90
30047;DHT22;16878;52.542;13.426;2022-11-20T03:34:29;1.60;99.90
30047;DHT22;16878;52.542;13.426;2022-11-20T03:36:54;1.60;99.90
30047;DHT22;16878;52.542;13.426;2022-11-20T03:39:20;1.50;99.90
30047;DHT22;16878;52.542;13.426;2022-11-20T03:41:45;1.50;99.90
30047;DHT22;16878;52.542;13.426;2022-11-20T03:44:11;1.50;99.90
30047;DHT22;16878;52.542;13.426;2022-11-20T03:46:37;1.50;99.90
30047;DHT22;16878;52.542;13.426;2022-11-20T03:49:03;1.60;99.90
30047;DHT22;16878;52.542;13.426;2022-11-20T03:51:29;1.50;99.90
30047;DHT22;16878;52.542;13.426;2022-11-20T03:53:56;1.50;99.90
30047;DHT22;16878;52.542;13.426;2022-11-20T03:56:23;1.60;99.90
30047;DHT22;16878;52.542;13.426;2022-11-20T03:58:49;1.60;99.90
30047;DHT22;16878;52.542;13.426;2022-11-20T04:01:15;1.60;99.90
30047;DHT22;16878;52.542;13.426;2022-11-20T04:03:42;1.60;99.90
30047;DHT22;16878;52.542;13.426;2022-11-20T04:06:09;1.60;99.90
30047;DHT22;16878;52.542;13.426;2022-11-20T04:08:35;1.60;99.90
30047;DHT22;16878;52.542;13.426;2022-11-20T04:11:14;1.50;99.90
30047;DHT22;16878;52.542;13.426;2022-11-20T04:13:40;1.50;99.90
30047;DHT22;16878;52.542;13.426;2022-11-20T04:16:06;1.40;99.90
30047;DHT22;16878;52.542;13.426;2022-11-20T04:18:32;1.40;99.90
30047;DHT22;16878;52.542;13.426;2022-11-20T04:20:58;1.40;99.90
30047;DHT22;16878;52.542;13.426;2022-11-20T04:23:25;1.40;99.90
30047;DHT22;16878;52.542;13.426;2022-11-20T04:25:50;1.40;99.90
30047;DHT22;16878;52.542;13.426;2022-11-20T04:28:16;1.50;99.90
30047;DHT22;16878;52.542;13.426;2022-11-20T04:30:41;1.40;99.90
30047;DHT22;16878;52.542;13.426;2022-11-20T04:33:07;1.40;99.90
30047;DHT22;16878;52.542;13.426;2022-11-20T04:35:36;1.40;99.90
30047;DHT22;16878;52.542;13.426;2022-11-20T04:38:02;1.40;99.90
30047;DHT22;16878;52.542;13.426;2022-11-20T04:40:28;1.30;99.90
30047;DHT22;16878;52.542;13.426;2022-11-20T04:42:54;1.40;99.90
30047;DHT22;16878;52.542;13.426;2022-11-20T04:45:20;1.40;99.90
30047;DHT22;16878;52.542;13.426;2022-11-20T04:47:45;1.40;99.90
30047;DHT22;16878;52.542;13.426;2022-11-20T04:50:11;1.30;99.90
30047;DHT22;16878;52.542;13.426;2022-11-20T04:52:36;1.30;99.90
30047;DHT22;16878;52.542;13.426;2022-11-20T04:55:02;1.30;99.90
30047;DHT22;16878;52.542;13.426;2022-11-20T04:57:27;1.30;99.90
30047;DHT22;16878;52.542;13.426;2022-11-20T04:59:53;1.30;99.90
30047;DHT22;16878;52.542;13.426;2022-11-20T05:02:18;1.30;99.90
30047;DHT22;16878;52.542;13.426;2022-11-20T05:04:44;1.30;99.90
30047;DHT22;16878;52.542;13.426;2022-11-20T05:07:09;1.30;99.90
30047;DHT22;16878;52.542;13.426;2022-11-20T05:09:35;1.30;99.90
30047;DHT22;16878;52.542;13.426;2022-11-20T05:12:00;1.30;99.90
30047;DHT22;16878;52.542;13.426;2022-11-20T05:14:26;1.30;99.90
30047;DHT22;16878;52.542;13.426;2022-11-20T05:16:51;1.30;99.90
30047;DHT22;16878;52.542;13.426;2022-11-20T05:19:17;1.30;99.90
30047;DHT22;16878;52.542;13.426;2022-11-20T05:21:42;1.30;99.90
30047;DHT22;16878;52.542;13.426;2022-11-20T05:24:08;1.30;99.90
30047;DHT22;16878;52.542;13.426;2022-11-20T05:26:33;1.30;99.90
30047;DHT22;16878;52.542;13.426;2022-11-20T05:28:59;1.30;99.90
30047;DHT22;16878;52.542;13.426;2022-11-20T05:31:25;1.30;99.90
30047;DHT22;16878;52.542;13.426;2022-11-20T05:33:51;1.30;99.90
30047;DHT22;16878;52.542;13.426;2022-11-20T05:36:16;1.30;99.90
30047;DHT22;16878;52.542;13.426;2022-11-20T05:38:42;1.30;99.90
30047;DHT22;16878;52.542;13.426;2022-11-20T05:43:37;1.30;99.90
30047;DHT22;16878;52.542;13.426;2022-11-20T05:46:04;1.30;99.90
30047;DHT22;16878;52.542;13.426;2022-11-20T05:48:30;1.30;99.90
30047;DHT22;16878;52.542;13.426;2022-11-20T05:50:59;1.30;99.90
30047;DHT22;16878;52.542;13.426;2022-11-20T05:53:27;1.30;99.90
30047;DHT22;16878;52.542;13.426;2022-11-20T05:55:59;1.30;99.90
30047;DHT22;16878;52.542;13.426;2022-11-20T05:58:25;1.30;99.90
30047;DHT22;16878;52.542;13.426;2022-11-20T06:00:51;1.30;99.90
30047;DHT22;16878;52.542;13.426;2022-11-20T06:03:17;1.30;99.90
30047;DHT22;16878;52.542;13.426;2022-11-20T06:05:42;1.30;99.90
30047;DHT22;16878;52.542;13.426;2022-11-20T06:08:08;1.30;99.90
30047;DHT22;16878;52.542;13.426;2022-11-20T06:10:33;1.30;99.90
30047;DHT22;16878;52.542;13.426;2022-11-20T06:12:59;1.30;99.90
30047;DHT22;16878;52.542;13.426;2022-11-20T06:15:24;1.30;99.90
30047;DHT22;16878;52.542;13.426;2022-11-20T06:17:53;1.20;99.90
30047;DHT22;16878;52.542;13.426;2022-11-20T06:20:19;1.20;99.90
30047;DHT22;16878;52.542;13.426;2022-11-20T06:22:45;1.30;99.90
30047;DHT22;16878;52.542;13.426;2022-11-20T06:25:11;1.20;99.90
30047;DHT22;16878;52.542;13.426;2022-11-20T06:27:36;1.20;99.90
30047;DHT22;16878;52.542;13.426;2022-11-20T06:30:02;1.20;99.90
30047;DHT22;16878;52.542;13.426;2022-11-20T06:32:28;1.30;99.90
30047;DHT22;16878;52.542;13.426;2022-11-20T06:34:54;1.20;99.90
30047;DHT22;16878;52.542;13.426;2022-11-20T06:37:19;1.20;99.90
30047;DHT22;16878;52.542;13.426;2022-11-20T06:39:45;1.30;99.90
30047;DHT22;16878;52.542;13.426;2022-11-20T06:42:10;1.30;99.90
30047;DHT22;16878;52.542;13.426;2022-11-20T06:44:36;1.30;99.90
30047;DHT22;16878;52.542;13.426;2022-11-20T06:47:01;1.30;99.90
30047;DHT22;16878;52.542;13.426;2022-11-20T06:49:27;1.30;99.90
30047;DHT22;16878;52.542;13.426;2022-11-20T06:51:54;1.30;99.90
30047;DHT22;16878;52.542;13.426;2022-11-20T06:54:20;1.30;99.90
30047;DHT22;16878;52.542;13.426;2022-11-20T06:56:47;1.30;99.90
30047;DHT22;16878;52.542;13.426;2022-11-20T06:59:14;1.30;99.90
30047;DHT22;16878;52.542;13.426;2022-11-20T07:01:41;1.30;99.90
30047;DHT22;16878;52.542;13.426;2022-11-20T07:04:08;1.30;99.90
30047;DHT22;16878;52.542;13.426;2022-11-20T07:06:38;1.30;99.90
30047;DHT22;16878;52.542;13.426;2022-11-20T07:09:04;1.30;99.90
30047;DHT22;16878;52.542;13.426;2022-11-20T07:11:30;1.30;99.90
30047;DHT22;16878;52.542;13.426;2022-11-20T07:13:57;1.30;99.90
30047;DHT22;16878;52.542;13.426;2022-11-20T07:16:28;1.30;99.90
30047;DHT22;16878;52.542;13.426;2022-11-20T07:18:55;1.30;99.90
30047;DHT22;16878;52.542;13.426;2022-11-20T07:21:21;1.30;99.90
30047;DHT22;16878;52.542;13.426;2022-11-20T07:23:50;1.30;99.90
30047;DHT22;16878;52.542;13.426;2022-11-20T07:26:16;1.30;99.90
30047;DHT22;16878;52.542;13.426;2022-11-20T07:28:46;1.30;99.90
30047;DHT22;16878;52.542;13.426;2022-11-20T07:31:15;1.30;99.90
30047;DHT22;16878;52.542;13.426;2022-11-20T07:33:41;1.30;99.90
30047;DHT22;16878;52.542;13.426;2022-11-20T07:36:07;1.40;99.90
30047;DHT22;16878;52.542;13.426;2022-11-20T07:38:33;1.40;99.90
30047;DHT22;16878;52.542;13.426;2022-11-20T07:40:59;1.40;99.90
30047;DHT22;16878;52.542;13.426;2022-11-20T07:43:29;1.40;99.90
30047;DHT22;16878;52.542;13.426;2022-11-20T07:45:56;1.50;99.90
30047;DHT22;16878;52.542;13.426;2022-11-20T07:48:22;1.50;99.90
30047;DHT22;16878;52.542;13.426;2022-11-20T07:50:48;1.60;99.90
30047;DHT22;16878;52.542;13.426;2022-11-20T07:53:16;1.60;99.90
30047;DHT22;16878;52.542;13.426;2022-11-20T07:55:46;1.60;99.90
30047;DHT22;16878;52.542;13.426;2022-11-20T07:58:12;1.60;99.90
30047;DHT22;16878;52.542;13.426;2022-11-20T08:00:39;1.60;99.90
30047;DHT22;16878;52.542;13.426;2022-11-20T08:03:05;1.70;99.90
30047;DHT22;16878;52.542;13.426;2022-11-20T08:05:31;1.70;99.90
30047;DHT22;16878;52.542;13.426;2022-11-20T08:08:00;1.70;99.90
30047;DHT22;16878;52.542;13.426;2022-11-20T08:10:25;1.70;99.90
30047;DHT22;16878;52.542;13.426;2022-11-20T08:12:51;1.70;99.90
30047;DHT22;16878;52.542;13.426;2022-11-20T08:15:47;1.70;99.90
30047;DHT22;16878;52.542;13.426;2022-11-20T08:18:32;1.70;99.90
30047;DHT22;16878;52.542;13.426;2022-11-20T08:21:01;1.70;99.90
30047;DHT22;16878;52.542;13.426;2022-11-20T08:23:27;1.80;99.90
30047;DHT22;16878;52.542;13.426;2022-11-20T08:25:52;1.80;99.90
30047;DHT22;16878;52.542;13.426;2022-11-20T08:28:18;1.80;99.90
30047;DHT22;16878;52.542;13.426;2022-11-20T08:30:43;1.80;99.90
30047;DHT22;16878;52.542;13.426;2022-11-20T08:33:11;1.80;99.90
30047;DHT22;16878;52.542;13.426;2022-11-20T08:35:37;1.80;99.90
30047;DHT22;16878;52.542;13.426;2022-11-20T08:38:03;1.80;99.90
30047;DHT22;16878;52.542;13.426;2022-11-20T08:40:29;1.80;99.90
30047;DHT22;16878;52.542;13.426;2022-11-20T08:42:55;1.80;99.90
30047;DHT22;16878;52.542;13.426;2022-11-20T08:45:20;1.80;99.90
30047;DHT22;16878;52.542;13.426;2022-11-20T08:47:46;1.80;99.90
30047;DHT22;16878;52.542;13.426;2022-11-20T08:50:13;1.90;99.90
30047;DHT22;16878;52.542;13.426;2022-11-20T08:52:38;1.90;99.90
30047;DHT22;16878;52.542;13.426;2022-11-20T08:55:04;2.10;99.90
30047;DHT22;16878;52.542;13.426;2022-11-20T08:57:33;2.10;99.90
30047;DHT22;16878;52.542;13.426;2022-11-20T08:59:59;2.00;99.90
30047;DHT22;16878;52.542;13.426;2022-11-20T09:02:25;2.10;99.90
30047;DHT22;16878;52.542;13.426;2022-11-20T09:04:50;2.20;99.90
30047;DHT22;16878;52.542;13.426;2022-11-20T09:07:16;2.20;99.90
30047;DHT22;16878;52.542;13.426;2022-11-20T09:09:41;2.20;99.90
30047;DHT22;16878;52.542;13.426;2022-11-20T09:12:07;2.20;99.90
30047;DHT22;16878;52.542;13.426;2022-11-20T09:14:32;2.20;99.90
30047;DHT22;16878;52.542;13.426;2022-11-20T09:16:59;2.20;99.90
30047;DHT22;16878;52.542;13.426;2022-11-20T09:19:24;2.20;99.90
30047;DHT22;16878;52.542;13.426;2022-11-20T09:21:50;2.20;99.90
30047;DHT22;16878;52.542;13.426;2022-11-20T09:24:16;2.20;99.90
30047;DHT22;16878;52.542;13.426;2022-11-20T09:26:41;2.10;99.90
30047;DHT22;16878;52.542;13.426;2022-11-20T09:29:07;2.20;99.90
30047;DHT22;16878;52.542;13.426;2022-11-20T09:31:32;2.20;99.90
30047;DHT22;16878;52.542;13.426;2022-11-20T09:33:58;2.30;99.90
30047;DHT22;16878;52.542;13.426;2022-11-20T09:36:23;2.40;99.90
30047;DHT22;16878;52.542;13.426;2022-11-20T09:38:49;2.50;99.90
30047;DHT22;16878;52.542;13.426;2022-11-20T09:46:48;2.60;99.90
30047;DHT22;16878;52.542;13.426;2022-11-20T09:54:31;2.70;99.90
30047;DHT22;16878;52.542;13.426;2022-11-20T09:57:08;2.70;99.90
30047;DHT22;16878;52.542;13.426;2022-11-20T09:59:36;2.80;99.90
30047;DHT22;16878;52.542;13.426;2022-11-20T10:02:08;2.80;99.90
30047;DHT22;16878;52.542;13.426;2022-11-20T10:04:37;2.80;99.90
30047;DHT22;16878;52.542;13.426;2022-11-20T10:07:14;2.90;99.90
30047;DHT22;16878;52.542;13.426;2022-11-20T10:09:43;2.90;99.90
30047;DHT22;16878;52.542;13.426;2022-11-20T10:15:06;3.20;99.90
30047;DHT22;16878;52.542;13.426;2022-11-20T10:30:22;3.20;99.90
30047;DHT22;16878;52.542;13.426;2022-11-20T10:36:05;3.20;99.90
30047;DHT22;16878;52.542;13.426;2022-11-20T10:38:36;3.20;99.90
30047;DHT22;16878;52.542;13.426;2022-11-20T10:41:02;3.20;99.90
30047;DHT22;16878;52.542;13.426;2022-11-20T10:43:47;3.20;99.90
30047;DHT22;16878;52.542;13.426;2022-11-20T10:46:22;3.20;99.90
30047;DHT22;16878;52.542;13.426;2022-11-20T10:48:48;3.20;99.90
30047;DHT22;16878;52.542;13.426;2022-11-20T10:53:57;3.20;99.90
30047;DHT22;16878;52.542;13.426;2022-11-20T11:01:53;3.20;99.90
30047;DHT22;16878;52.542;13.426;2022-11-20T11:06:47;3.80;99.90
30047;DHT22;16878;52.542;13.426;2022-11-20T11:09:19;4.20;99.90
30047;DHT22;16878;52.542;13.426;2022-11-20T11:11:46;4.50;99.90
30047;DHT22;16878;52.542;13.426;2022-11-20T11:14:13;4.60;99.90
30047;DHT22;16878;52.542;13.426;2022-11-20T11:19:16;4.60;99.90
30047;DHT22;16878;52.542;13.426;2022-11-20T11:22:16;4.50;99.90
30047;DHT22;16878;52.542;13.426;2022-11-20T11:24:36;4.30;99.90
30047;DHT22;16878;52.542;13.426;2022-11-20T11:27:03;4.10;99.90
30047;DHT22;16878;52.542;13.426;2022-11-20T11:29:32;4.00;99.90
30047;DHT22;16878;52.542;13.426;2022-11-20T11:32:07;3.90;99.90
30047;DHT22;16878;52.542;13.426;2022-11-20T11:34:57;3.90;99.90
30047;DHT22;16878;52.542;13.426;2022-11-20T11:37:23;3.80;99.90
30047;DHT22;16878;52.542;13.426;2022-11-20T11:39:49;3.80;99.90
30047;DHT22;16878;52.542;13.426;2022-11-20T11:42:16;3.80;99.90
30047;DHT22;16878;52.542;13.426;2022-11-20T11:44:46;3.80;99.90
30047;DHT22;16878;52.542;13.426;2022-11-20T11:50:12;3.60;99.90
30047;DHT22;16878;52.542;13.426;2022-11-20T11:57:49;3.50;99.90
30047;DHT22;16878;52.542;13.426;2022-11-20T12:00:18;3.40;99.90
30047;DHT22;16878;52.542;13.426;2022-11-20T12:05:18;3.30;99.90
30047;DHT22;16878;52.542;13.426;2022-11-20T12:10:13;3.20;99.90
30047;DHT22;16878;52.542;13.426;2022-11-20T12:12:41;3.20;99.90
30047;DHT22;16878;52.542;13.426;2022-11-20T12:15:11;3.20;99.90
30047;DHT22;16878;52.542;13.426;2022-11-20T12:17:38;3.20;99.90
30047;DHT22;16878;52.542;13.426;2022-11-20T12:20:05;3.20;99.90
30047;DHT22;16878;52.542;13.426;2022-11-20T12:22:37;3.30;99.90
30047;DHT22;16878;52.542;13.426;2022-11-20T12:25:11;3.20;99.90
30047;DHT22;16878;52.542;13.426;2022-11-20T12:30:10;3.10;99.90
30047;DHT22;16878;52.542;13.426;2022-11-20T12:56:56;2.50;99.90
30047;DHT22;16878;52.542;13.426;2022-11-20T13:06:46;2.80;99.90
30047;DHT22;16878;52.542;13.426;2022-11-20T13:09:16;2.80;99.90
30047;DHT22;16878;52.542;13.426;2022-11-20T13:12:01;2.90;99.90
30047;DHT22;16878;52.542;13.426;2022-11-20T13:17:01;2.80;99.90
30047;DHT22;16878;52.542;13.426;2022-11-20T13:19:29;2.90;99.90
30047;DHT22;16878;52.542;13.426;2022-11-20T13:21:55;2.90;99.90
30047;DHT22;16878;52.542;13.426;2022-11-20T13:29:34;3.00;99.90
30047;DHT22;16878;52.542;13.426;2022-11-20T13:32:05;3.20;99.90
30047;DHT22;16878;52.542;13.426;2022-11-20T13:34:31;3.30;99.90
30047;DHT22;16878;52.542;13.426;2022-11-20T13:36:57;3.30;99.90
30047;DHT22;16878;52.542;13.426;2022-11-20T13:39:26;3.30;99.90
30047;DHT22;16878;52.542;13.426;2022-11-20T13:42:02;3.30;99.90
30047;DHT22;16878;52.542;13.426;2022-11-20T13:44:30;3.20;99.90
30047;DHT22;16878;52.542;13.426;2022-11-20T13:46:58;3.10;99.90
30047;DHT22;16878;52.542;13.426;2022-11-20T13:49:29;3.10;99.90
30047;DHT22;16878;52.542;13.426;2022-11-20T13:57:33;2.90;99.90
30047;DHT22;16878;52.542;13.426;2022-11-20T14:05:34;2.80;99.90
30047;DHT22;16878;52.542;13.426;2022-11-20T14:08:00;2.70;99.90
30047;DHT22;16878;52.542;13.426;2022-11-20T14:10:28;2.70;99.90
30047;DHT22;16878;52.542;13.426;2022-11-20T14:12:54;2.60;99.90
30047;DHT22;16878;52.542;13.426;2022-11-20T14:15:38;2.50;99.90
30047;DHT22;16878;52.542;13.426;2022-11-20T14:18:18;2.50;99.90
30047;DHT22;16878;52.542;13.426;2022-11-20T14:20:45;2.50;99.90
30047;DHT22;16878;52.542;13.426;2022-11-20T14:23:11;2.40;99.90
30047;DHT22;16878;52.542;13.426;2022-11-20T14:25:37;2.40;99.90
30047;DHT22;16878;52.542;13.426;2022-11-20T14:28:02;2.30;99.90
30047;DHT22;16878;52.542;13.426;2022-11-20T14:30:36;2.30;99.90
30047;DHT22;16878;52.542;13.426;2022-11-20T14:33:03;2.20;99.90
30047;DHT22;16878;52.542;13.426;2022-11-20T14:35:31;2.20;99.90
30047;DHT22;16878;52.542;13.426;2022-11-20T14:37:57;2.20;99.90
30047;DHT22;16878;52.542;13.426;2022-11-20T14:42:48;2.20;99.90
30047;DHT22;16878;52.542;13.426;2022-11-20T14:45:14;2.20;99.90
30047;DHT22;16878;52.542;13.426;2022-11-20T14:47:40;2.10;99.90
30047;DHT22;16878;52.542;13.426;2022-11-20T14:50:12;2.20;99.90
30047;DHT22;16878;52.542;13.426;2022-11-20T14:52:38;2.20;99.90
30047;DHT22;16878;52.542;13.426;2022-11-20T14:55:04;2.20;99.90
30047;DHT22;16878;52.542;13.426;2022-11-20T15:02:47;2.20;99.90
30047;DHT22;16878;52.542;13.426;2022-11-20T15:05:13;2.20;99.90
30047;DHT22;16878;52.542;13.426;2022-11-20T15:07:43;2.20;99.90
30047;DHT22;16878;52.542;13.426;2022-11-20T15:10:12;2.20;99.90
30047;DHT22;16878;52.542;13.426;2022-11-20T15:12:46;2.20;99.90
30047;DHT22;16878;52.542;13.426;2022-11-20T15:15:12;2.20;99.90
30047;DHT22;16878;52.542;13.426;2022-11-20T15:17:40;2.20;99.90
30047;DHT22;16878;52.542;13.426;2022-11-20T15:20:09;2.20;99.90
30047;DHT22;16878;52.542;13.426;2022-11-20T15:22:36;2.20;99.90
30047;DHT22;16878;52.542;13.426;2022-11-20T15:25:05;2.20;99.90
30047;DHT22;16878;52.542;13.426;2022-11-20T15:27:33;2.20;99.90
30047;DHT22;16878;52.542;13.426;2022-11-20T15:29:59;2.20;99.90
30047;DHT22;16878;52.542;13.426;2022-11-20T15:32:25;2.10;99.90
30047;DHT22;16878;52.542;13.426;2022-11-20T15:34:50;2.10;99.90
30047;DHT22;16878;52.542;13.426;2022-11-20T15:37:16;2.10;99.90
30047;DHT22;16878;52.542;13.426;2022-11-20T15:39:41;2.10;99.90
30047;DHT22;16878;52.542;13.426;2022-11-20T15:42:07;2.10;99.90
30047;DHT22;16878;52.542;13.426;2022-11-20T15:44:32;2.10;99.90
30047;DHT22;16878;52.542;13.426;2022-11-20T15:46:58;2.10;99.90
30047;DHT22;16878;52.542;13.426;2022-11-20T15:49:24;2.10;99.90
30047;DHT22;16878;52.542;13.426;2022-11-20T15:51:50;2.10;99.90
30047;DHT22;16878;52.542;13.426;2022-11-20T15:54:19;2.10;99.90
30047;DHT22;16878;52.542;13.426;2022-11-20T15:56:48;2.10;99.90
30047;DHT22;16878;52.542;13.426;2022-11-20T15:59:13;2.10;99.90
30047;DHT22;16878;52.542;13.426;2022-11-20T16:01:42;2.10;99.90
30047;DHT22;16878;52.542;13.426;2022-11-20T16:04:11;1.90;99.90
30047;DHT22;16878;52.542;13.426;2022-11-20T16:06:37;1.70;99.90
30047;DHT22;16878;52.542;13.426;2022-11-20T16:09:03;1.60;99.90
30047;DHT22;16878;52.542;13.426;2022-11-20T16:11:29;1.50;99.90
30047;DHT22;16878;52.542;13.426;2022-11-20T16:13:54;1.40;99.90
30047;DHT22;16878;52.542;13.426;2022-11-20T16:16:38;1.30;99.90
30047;DHT22;16878;52.542;13.426;2022-11-20T16:19:05;1.20;99.90
30047;DHT22;16878;52.542;13.426;2022-11-20T16:21:31;1.20;99.90
30047;DHT22;16878;52.542;13.426;2022-11-20T16:23:57;1.10;99.90
30047;DHT22;16878;52.542;13.426;2022-11-20T16:26:25;1.00;99.90
30047;DHT22;16878;52.542;13.426;2022-11-20T16:28:50;1.00;99.90
30047;DHT22;16878;52.542;13.426;2022-11-20T16:31:17;1.00;99.90
30047;DHT22;16878;52.542;13.426;2022-11-20T16:33:43;0.90;99.90
30047;DHT22;16878;52.542;13.426;2022-11-20T16:36:16;0.90;99.90
30047;DHT22;16878;52.542;13.426;2022-11-20T16:38:42;0.90;99.90
30047;DHT22;16878;52.542;13.426;2022-11-20T16:41:08;0.90;99.90
30047;DHT22;16878;52.542;13.426;2022-11-20T16:46:10;0.80;99.90
30047;DHT22;16878;52.542;13.426;2022-11-20T16:48:36;0.80;99.90
30047;DHT22;16878;52.542;13.426;2022-11-20T16:51:01;0.80;99.90
30047;DHT22;16878;52.542;13.426;2022-11-20T16:53:27;0.80;99.90
30047;DHT22;16878;52.542;13.426;2022-11-20T16:55:52;0.80;99.90
30047;DHT22;16878;52.542;13.426;2022-11-20T16:58:18;0.70;99.90
30047;DHT22;16878;52.542;13.426;2022-11-20T17:00:43;0.70;99.90
30047;DHT22;16878;52.542;13.426;2022-11-20T17:03:10;0.80;99.90
30047;DHT22;16878;52.542;13.426;2022-11-20T17:05:35;0.90;99.90
30047;DHT22;16878;52.542;13.426;2022-11-20T17:08:01;1.00;99.90
30047;DHT22;16878;52.542;13.426;2022-11-20T17:10:26;1.10;99.90
30047;DHT22;16878;52.542;13.426;2022-11-20T17:12:52;1.20;99.90
30047;DHT22;16878;52.542;13.426;2022-11-20T17:15:17;1.20;99.90
30047;DHT22;16878;52.542;13.426;2022-11-20T17:17:43;1.20;99.90
30047;DHT22;16878;52.542;13.426;2022-11-20T17:20:09;1.20;99.90
30047;DHT22;16878;52.542;13.426;2022-11-20T17:22:34;1.20;99.90
30047;DHT22;16878;52.542;13.426;2022-11-20T17:25:00;1.30;99.90
30047;DHT22;16878;52.542;13.426;2022-11-20T17:27:26;1.30;99.90
30047;DHT22;16878;52.542;13.426;2022-11-20T17:29:51;1.30;99.90
30047;DHT22;16878;52.542;13.426;2022-11-20T17:32:19;1.40;99.90
30047;DHT22;16878;52.542;13.426;2022-11-20T17:34:44;1.40;99.90
30047;DHT22;16878;52.542;13.426;2022-11-20T17:37:10;1.50;99.90
30047;DHT22;16878;52.542;13.426;2022-11-20T17:39:35;1.50;99.90